sensor_id;sensor_type;location;lat;lon;timestamp;temperature;humidity
31725;DHT22;18306;40.960;14.836;2022-11-14T00:00:16;12.20;99.90
31725;DHT22;18306;40.960;14.836;2022-11-14T00:03:03;12.20;99.90
31725;DHT22;18306;40.960;14.836;2022-11-14T00:05:49;12.00;99.90
31725;DHT22;18306;40.960;14.836;2022-11-14T00:08:35;12.10;99.90
31725;DHT22;18306;40.960;14.836;2022-11-14T00:11:20;12.20;99.90
31725;DHT22;18306;40.960;14.836;2022-11-14T00:14:06;12.20;99.90
31725;DHT22;18306;40.960;14.836;2022-11-14T00:16:51;12.30;99.90
31725;DHT22;18306;40.960;14.836;2022-11-14T00:19:36;12.40;99.90
31725;DHT22;18306;40.960;14.836;2022-11-14T00:22:22;12.50;99.90
31725;DHT22;18306;40.960;14.836;2022-11-14T00:25:08;12.50;99.90
31725;DHT22;18306;40.960;14.836;2022-11-14T00:27:57;12.60;99.90
31725;DHT22;18306;40.960;14.836;2022-11-14T00:30:49;12.60;99.90
31725;DHT22;18306;40.960;14.836;2022-11-14T00:33:35;12.70;99.90
31725;DHT22;18306;40.960;14.836;2022-11-14T00:36:20;12.70;99.90
31725;DHT22;18306;40.960;14.836;2022-11-14T00:39:05;12.70;99.90
31725;DHT22;18306;40.960;14.836;2022-11-14T00:41:50;12.70;99.90
31725;DHT22;18306;40.960;14.836;2022-11-14T00:44:36;12.70;99.90
31725;DHT22;18306;40.960;14.836;2022-11-14T00:47:21;12.70;99.90
31725;DHT22;18306;40.960;14.836;2022-11-14T00:50:07;12.60;99.90
31725;DHT22;18306;40.960;14.836;2022-11-14T00:52:52;12.30;99.90
31725;DHT22;18306;40.960;14.836;2022-11-14T00:55:37;12.20;99.90
31725;DHT22;18306;40.960;14.836;2022-11-14T00:58:23;12.10;99.90
31725;DHT22;18306;40.960;14.836;2022-11-14T01:01:09;12.00;99.90
31725;DHT22;18306;40.960;14.836;2022-11-14T01:03:54;12.10;99.90
31725;DHT22;18306;40.960;14.836;2022-11-14T01:06:40;12.10;99.90
31725;DHT22;18306;40.960;14.836;2022-11-14T01:09:25;12.30;99.90
31725;DHT22;18306;40.960;14.836;2022-11-14T01:12:10;12.30;99.90
31725;DHT22;18306;40.960;14.836;2022-11-14T01:14:56;12.30;99.90
31725;DHT22;18306;40.960;14.836;2022-11-14T01:17:41;12.40;99.90
31725;DHT22;18306;40.960;14.836;2022-11-14T01:20:27;12.50;99.90
31725;DHT22;18306;40.960;14.836;2022-11-14T01:23:13;12.50;99.90
31725;DHT22;18306;40.960;14.836;2022-11-14T01:26:08;12.50;99.90
31725;DHT22;18306;40.960;14.836;2022-11-14T01:28:54;12.40;99.90
31725;DHT22;18306;40.960;14.836;2022-11-14T01:31:40;12.30;99.90
31725;DHT22;18306;40.960;14.836;2022-11-14T01:34:25;12.20;99.90
31725;DHT22;18306;40.960;14.836;2022-11-14T01:37:11;12.20;99.90
31725;DHT22;18306;40.960;14.836;2022-11-14T01:39:56;12.20;99.90
31725;DHT22;18306;40.960;14.836;2022-11-14T01:42:41;12.10;99.90
31725;DHT22;18306;40.960;14.836;2022-11-14T01:48:53;11.80;99.90
31725;DHT22;18306;40.960;14.836;2022-11-14T01:51:44;12.00;99.90
31725;DHT22;18306;40.960;14.836;2022-11-14T01:54:37;12.10;99.90
31725;DHT22;18306;40.960;14.836;2022-11-14T01:57:35;12.30;99.90
31725;DHT22;18306;40.960;14.836;2022-11-14T02:00:22;12.40;99.90
31725;DHT22;18306;40.960;14.836;2022-11-14T02:03:07;12.20;99.90
31725;DHT22;18306;40.960;14.836;2022-11-14T02:05:53;12.20;99.90
31725;DHT22;18306;40.960;14.836;2022-11-14T02:08:40;12.20;99.90
31725;DHT22;18306;40.960;14.836;2022-11-14T02:11:28;12.30;99.90
31725;DHT22;18306;40.960;14.836;2022-11-14T02:14:14;12.30;99.90
31725;DHT22;18306;40.960;14.836;2022-11-14T02:17:00;12.30;99.90
31725;DHT22;18306;40.960;14.836;2022-11-14T02:22:47;12.40;99.90
31725;DHT22;18306;40.960;14.836;2022-11-14T02:25:33;12.40;99.90
31725;DHT22;18306;40.960;14.836;2022-11-14T02:28:19;12.50;99.90
31725;DHT22;18306;40.960;14.836;2022-11-14T02:31:05;12.50;99.90
31725;DHT22;18306;40.960;14.836;2022-11-14T02:33:50;12.40;99.90
31725;DHT22;18306;40.960;14.836;2022-11-14T02:36:36;12.40;99.90
31725;DHT22;18306;40.960;14.836;2022-11-14T02:39:22;12.50;99.90
31725;DHT22;18306;40.960;14.836;2022-11-14T02:42:07;12.40;99.90
31725;DHT22;18306;40.960;14.836;2022-11-14T02:44:52;12.40;99.90
31725;DHT22;18306;40.960;14.836;2022-11-14T02:47:38;12.00;99.90
31725;DHT22;18306;40.960;14.836;2022-11-14T02:50:23;12.00;99.90
31725;DHT22;18306;40.960;14.836;2022-11-14T02:53:08;12.00;99.90
31725;DHT22;18306;40.960;14.836;2022-11-14T02:55:54;12.10;99.90
31725;DHT22;18306;40.960;14.836;2022-11-14T02:58:39;12.10;99.90
31725;DHT22;18306;40.960;14.836;2022-11-14T03:01:24;12.20;99.90
31725;DHT22;18306;40.960;14.836;2022-11-14T03:04:10;12.10;99.90
31725;DHT22;18306;40.960;14.836;2022-11-14T03:06:57;12.10;99.90
31725;DHT22;18306;40.960;14.836;2022-11-14T03:09:42;12.10;99.90
31725;DHT22;18306;40.960;14.836;2022-11-14T03:12:28;12.10;99.90
31725;DHT22;18306;40.960;14.836;2022-11-14T03:15:13;12.10;99.90
31725;DHT22;18306;40.960;14.836;2022-11-14T03:17:58;12.20;99.90
31725;DHT22;18306;40.960;14.836;2022-11-14T03:20:43;12.20;99.90
31725;DHT22;18306;40.960;14.836;2022-11-14T03:23:29;12.40;99.90
31725;DHT22;18306;40.960;14.836;2022-11-14T03:26:14;12.40;99.90
31725;DHT22;18306;40.960;14.836;2022-11-14T03:29:00;12.40;99.90
31725;DHT22;18306;40.960;14.836;2022-11-14T03:31:45;12.20;99.90
31725;DHT22;18306;40.960;14.836;2022-11-14T03:34:30;12.20;99.90
31725;DHT22;18306;40.960;14.836;2022-11-14T03:37:15;12.10;99.90
31725;DHT22;18306;40.960;14.836;2022-11-14T03:40:01;12.10;99.90
31725;DHT22;18306;40.960;14.836;2022-11-14T03:42:47;12.20;99.90
31725;DHT22;18306;40.960;14.836;2022-11-14T03:45:32;12.20;99.90
31725;DHT22;18306;40.960;14.836;2022-11-14T03:48:18;12.10;99.90
31725;DHT22;18306;40.960;14.836;2022-11-14T03:51:03;12.10;99.90
31725;DHT22;18306;40.960;14.836;2022-11-14T03:53:49;12.10;99.90
31725;DHT22;18306;40.960;14.836;2022-11-14T03:56:34;12.10;99.90
31725;DHT22;18306;40.960;14.836;2022-11-14T03:59:20;12.10;99.90
31725;DHT22;18306;40.960;14.836;2022-11-14T04:02:05;12.10;99.90
31725;DHT22;18306;40.960;14.836;2022-11-14T04:04:50;12.10;99.90
31725;DHT22;18306;40.960;14.836;2022-11-14T04:07:36;12.10;99.90
31725;DHT22;18306;40.960;14.836;2022-11-14T04:10:21;12.10;99.90
31725;DHT22;18306;40.960;14.836;2022-11-14T04:13:07;12.10;99.90
31725;DHT22;18306;40.960;14.836;2022-11-14T04:15:57;12.20;99.90
31725;DHT22;18306;40.960;14.836;2022-11-14T04:18:42;12.20;99.90
31725;DHT22;18306;40.960;14.836;2022-11-14T04:21:27;12.20;99.90
31725;DHT22;18306;40.960;14.836;2022-11-14T04:24:13;12.10;99.90
31725;DHT22;18306;40.960;14.836;2022-11-14T04:26:58;12.00;99.90
31725;DHT22;18306;40.960;14.836;2022-11-14T04:29:43;12.10;99.90
31725;DHT22;18306;40.960;14.836;2022-11-14T04:32:29;12.10;99.90
31725;DHT22;18306;40.960;14.836;2022-11-14T04:35:15;12.20;99.90
31725;DHT22;18306;40.960;14.836;2022-11-14T04:38:00;12.30;99.90
31725;DHT22;18306;40.960;14.836;2022-11-14T04:40:51;12.10;99.90
31725;DHT22;18306;40.960;14.836;2022-11-14T04:43:37;12.10;99.90
31725;DHT22;18306;40.960;14.836;2022-11-14T04:46:22;12.10;99.90
31725;DHT22;18306;40.960;14.836;2022-11-14T04:49:08;12.00;99.90
31725;DHT22;18306;40.960;14.836;2022-11-14T04:51:53;12.00;99.90
31725;DHT22;18306;40.960;14.836;2022-11-14T04:54:38;11.70;99.90
31725;DHT22;18306;40.960;14.836;2022-11-14T04:57:24;11.70;99.90
31725;DHT22;18306;40.960;14.836;2022-11-14T05:00:09;11.40;99.90
31725;DHT22;18306;40.960;14.836;2022-11-14T05:02:57;11.50;99.90
31725;DHT22;18306;40.960;14.836;2022-11-14T05:05:43;11.50;99.90
31725;DHT22;18306;40.960;14.836;2022-11-14T05:08:29;11.80;99.90
31725;DHT22;18306;40.960;14.836;2022-11-14T05:11:15;11.90;99.90
31725;DHT22;18306;40.960;14.836;2022-11-14T05:14:01;11.90;99.90
31725;DHT22;18306;40.960;14.836;2022-11-14T05:16:46;12.00;99.90
31725;DHT22;18306;40.960;14.836;2022-11-14T05:19:32;11.90;99.90
31725;DHT22;18306;40.960;14.836;2022-11-14T05:22:18;11.80;99.90
31725;DHT22;18306;40.960;14.836;2022-11-14T05:25:04;11.70;99.90
31725;DHT22;18306;40.960;14.836;2022-11-14T05:27:49;11.40;99.90
31725;DHT22;18306;40.960;14.836;2022-11-14T05:30:35;11.50;99.90
31725;DHT22;18306;40.960;14.836;2022-11-14T05:33:20;11.50;99.90
31725;DHT22;18306;40.960;14.836;2022-11-14T05:36:08;11.60;99.90
31725;DHT22;18306;40.960;14.836;2022-11-14T05:38:54;11.70;99.90
31725;DHT22;18306;40.960;14.836;2022-11-14T05:41:39;11.80;99.90
31725;DHT22;18306;40.960;14.836;2022-11-14T05:44:25;11.90;99.90
31725;DHT22;18306;40.960;14.836;2022-11-14T05:47:10;12.00;99.90
31725;DHT22;18306;40.960;14.836;2022-11-14T05:49:55;12.10;99.90
31725;DHT22;18306;40.960;14.836;2022-11-14T05:52:41;12.20;99.90
31725;DHT22;18306;40.960;14.836;2022-11-14T05:55:26;12.30;99.90
31725;DHT22;18306;40.960;14.836;2022-11-14T05:58:11;12.30;99.90
31725;DHT22;18306;40.960;14.836;2022-11-14T06:01:02;12.20;99.90
31725;DHT22;18306;40.960;14.836;2022-11-14T06:03:48;12.00;99.90
31725;DHT22;18306;40.960;14.836;2022-11-14T06:06:34;11.90;99.90
31725;DHT22;18306;40.960;14.836;2022-11-14T06:09:19;11.80;99.90
31725;DHT22;18306;40.960;14.836;2022-11-14T06:12:05;11.80;99.90
31725;DHT22;18306;40.960;14.836;2022-11-14T06:14:51;12.00;99.90
31725;DHT22;18306;40.960;14.836;2022-11-14T06:17:37;12.10;99.90
31725;DHT22;18306;40.960;14.836;2022-11-14T06:20:22;12.20;99.90
31725;DHT22;18306;40.960;14.836;2022-11-14T06:23:08;12.20;99.90
31725;DHT22;18306;40.960;14.836;2022-11-14T06:26:09;12.20;99.90
31725;DHT22;18306;40.960;14.836;2022-11-14T06:28:57;12.30;99.90
31725;DHT22;18306;40.960;14.836;2022-11-14T06:31:43;12.30;99.90
31725;DHT22;18306;40.960;14.836;2022-11-14T06:34:28;12.20;99.90
31725;DHT22;18306;40.960;14.836;2022-11-14T06:37:14;12.30;99.90
31725;DHT22;18306;40.960;14.836;2022-11-14T06:39:59;12.40;99.90
31725;DHT22;18306;40.960;14.836;2022-11-14T06:42:44;12.40;99.90
31725;DHT22;18306;40.960;14.836;2022-11-14T06:45:29;12.40;99.90
31725;DHT22;18306;40.960;14.836;2022-11-14T06:48:15;12.30;99.90
31725;DHT22;18306;40.960;14.836;2022-11-14T06:51:01;12.30;99.90
31725;DHT22;18306;40.960;14.836;2022-11-14T06:53:47;12.30;99.90
31725;DHT22;18306;40.960;14.836;2022-11-14T06:56:33;12.30;99.90
31725;DHT22;18306;40.960;14.836;2022-11-14T06:59:19;12.50;99.90
31725;DHT22;18306;40.960;14.836;2022-11-14T07:02:05;12.60;99.90
31725;DHT22;18306;40.960;14.836;2022-11-14T07:04:51;12.70;99.90
31725;DHT22;18306;40.960;14.836;2022-11-14T07:07:36;12.70;99.90
31725;DHT22;18306;40.960;14.836;2022-11-14T07:10:21;12.70;99.90
31725;DHT22;18306;40.960;14.836;2022-11-14T07:13:10;12.70;99.90
31725;DHT22;18306;40.960;14.836;2022-11-14T07:16:04;12.80;99.90
31725;DHT22;18306;40.960;14.836;2022-11-14T07:19:25;12.70;99.90
31725;DHT22;18306;40.960;14.836;2022-11-14T07:22:11;12.70;99.90
31725;DHT22;18306;40.960;14.836;2022-11-14T07:25:26;12.70;99.90
31725;DHT22;18306;40.960;14.836;2022-11-14T07:28:27;12.80;99.90
31725;DHT22;18306;40.960;14.836;2022-11-14T07:31:26;13.00;99.90
31725;DHT22;18306;40.960;14.836;2022-11-14T07:34:29;12.90;99.90
31725;DHT22;18306;40.960;14.836;2022-11-14T07:37:25;12.90;99.90
31725;DHT22;18306;40.960;14.836;2022-11-14T07:40:11;13.00;99.90
31725;DHT22;18306;40.960;14.836;2022-11-14T07:42:57;12.90;99.90
31725;DHT22;18306;40.960;14.836;2022-11-14T07:45:44;13.10;99.90
31725;DHT22;18306;40.960;14.836;2022-11-14T07:48:30;13.20;99.90
31725;DHT22;18306;40.960;14.836;2022-11-14T07:51:19;13.30;99.90
31725;DHT22;18306;40.960;14.836;2022-11-14T07:54:04;13.20;99.90
31725;DHT22;18306;40.960;14.836;2022-11-14T07:56:50;13.10;99.90
31725;DHT22;18306;40.960;14.836;2022-11-14T07:59:35;13.00;99.90
31725;DHT22;18306;40.960;14.836;2022-11-14T08:02:20;12.90;99.90
31725;DHT22;18306;40.960;14.836;2022-11-14T08:05:06;13.00;99.90
31725;DHT22;18306;40.960;14.836;2022-11-14T08:07:55;13.10;99.90
31725;DHT22;18306;40.960;14.836;2022-11-14T08:10:40;13.20;99.90
31725;DHT22;18306;40.960;14.836;2022-11-14T08:13:26;13.30;99.90
31725;DHT22;18306;40.960;14.836;2022-11-14T08:16:12;13.30;99.90
31725;DHT22;18306;40.960;14.836;2022-11-14T08:18:57;13.10;99.90
31725;DHT22;18306;40.960;14.836;2022-11-14T08:21:43;13.00;99.90
31725;DHT22;18306;40.960;14.836;2022-11-14T08:24:29;13.20;99.90
31725;DHT22;18306;40.960;14.836;2022-11-14T08:27:14;13.30;99.90
31725;DHT22;18306;40.960;14.836;2022-11-14T08:29:59;13.30;99.90
31725;DHT22;18306;40.960;14.836;2022-11-14T08:32:45;13.40;99.90
31725;DHT22;18306;40.960;14.836;2022-11-14T08:35:32;13.60;99.90
31725;DHT22;18306;40.960;14.836;2022-11-14T08:38:18;13.80;99.90
31725;DHT22;18306;40.960;14.836;2022-11-14T08:41:04;13.90;99.90
31725;DHT22;18306;40.960;14.836;2022-11-14T08:43:49;14.00;99.90
31725;DHT22;18306;40.960;14.836;2022-11-14T08:46:34;14.10;99.90
31725;DHT22;18306;40.960;14.836;2022-11-14T08:49:20;14.20;99.90
31725;DHT22;18306;40.960;14.836;2022-11-14T08:52:05;14.30;99.90
31725;DHT22;18306;40.960;14.836;2022-11-14T08:54:50;14.40;99.90
31725;DHT22;18306;40.960;14.836;2022-11-14T08:57:36;14.30;99.90
31725;DHT22;18306;40.960;14.836;2022-11-14T09:00:21;14.20;99.90
31725;DHT22;18306;40.960;14.836;2022-11-14T09:03:10;14.00;99.90
31725;DHT22;18306;40.960;14.836;2022-11-14T09:06:00;14.00;99.90
31725;DHT22;18306;40.960;14.836;2022-11-14T09:08:46;14.00;99.90
31725;DHT22;18306;40.960;14.836;2022-11-14T09:11:32;14.10;99.90
31725;DHT22;18306;40.960;14.836;2022-11-14T09:14:17;14.20;99.90
31725;DHT22;18306;40.960;14.836;2022-11-14T09:17:03;14.50;99.90
31725;DHT22;18306;40.960;14.836;2022-11-14T09:19:48;14.70;99.90
31725;DHT22;18306;40.960;14.836;2022-11-14T09:22:34;14.80;99.90
31725;DHT22;18306;40.960;14.836;2022-11-14T09:25:20;15.10;99.90
31725;DHT22;18306;40.960;14.836;2022-11-14T09:28:06;15.30;99.90
31725;DHT22;18306;40.960;14.836;2022-11-14T09:30:58;15.40;99.90
31725;DHT22;18306;40.960;14.836;2022-11-14T09:33:43;15.60;99.90
31725;DHT22;18306;40.960;14.836;2022-11-14T09:36:29;15.70;99.90
31725;DHT22;18306;40.960;14.836;2022-11-14T09:39:14;15.80;99.90
31725;DHT22;18306;40.960;14.836;2022-11-14T09:42:24;15.90;99.90
31725;DHT22;18306;40.960;14.836;2022-11-14T09:45:14;15.90;99.90
31725;DHT22;18306;40.960;14.836;2022-11-14T09:48:12;15.90;99.90
31725;DHT22;18306;40.960;14.836;2022-11-14T09:51:08;15.80;99.90
31725;DHT22;18306;40.960;14.836;2022-11-14T09:54:05;15.60;99.90
31725;DHT22;18306;40.960;14.836;2022-11-14T09:56:52;15.50;99.90
31725;DHT22;18306;40.960;14.836;2022-11-14T09:59:37;15.50;99.90
31725;DHT22;18306;40.960;14.836;2022-11-14T10:02:26;15.40;99.90
31725;DHT22;18306;40.960;14.836;2022-11-14T10:08:27;15.20;99.90
31725;DHT22;18306;40.960;14.836;2022-11-14T10:11:22;15.00;99.90
31725;DHT22;18306;40.960;14.836;2022-11-14T10:17:53;15.10;99.90
31725;DHT22;18306;40.960;14.836;2022-11-14T10:27:02;15.60;99.90
31725;DHT22;18306;40.960;14.836;2022-11-14T10:30:20;15.90;99.90
31725;DHT22;18306;40.960;14.836;2022-11-14T10:33:35;16.10;99.90
31725;DHT22;18306;40.960;14.836;2022-11-14T10:42:31;16.10;99.90
31725;DHT22;18306;40.960;14.836;2022-11-14T10:45:43;16.00;99.90
31725;DHT22;18306;40.960;14.836;2022-11-14T10:48:38;16.00;99.90
31725;DHT22;18306;40.960;14.836;2022-11-14T10:51:36;15.80;99.90
31725;DHT22;18306;40.960;14.836;2022-11-14T10:54:29;15.90;99.90
31725;DHT22;18306;40.960;14.836;2022-11-14T10:57:19;15.90;99.90
31725;DHT22;18306;40.960;14.836;2022-11-14T11:00:20;15.80;99.90
31725;DHT22;18306;40.960;14.836;2022-11-14T11:03:10;15.50;99.90
31725;DHT22;18306;40.960;14.836;2022-11-14T11:05:55;15.30;99.90
31725;DHT22;18306;40.960;14.836;2022-11-14T11:08:42;15.50;99.90
31725;DHT22;18306;40.960;14.836;2022-11-14T11:11:58;15.70;99.90
31725;DHT22;18306;40.960;14.836;2022-11-14T11:14:44;16.00;99.90
31725;DHT22;18306;40.960;14.836;2022-11-14T11:17:30;16.30;99.90
31725;DHT22;18306;40.960;14.836;2022-11-14T11:20:36;16.60;99.90
31725;DHT22;18306;40.960;14.836;2022-11-14T11:23:26;16.80;99.90
31725;DHT22;18306;40.960;14.836;2022-11-14T11:26:26;17.00;99.90
31725;DHT22;18306;40.960;14.836;2022-11-14T11:31:58;17.30;99.90
31725;DHT22;18306;40.960;14.836;2022-11-14T11:34:44;17.30;99.90
31725;DHT22;18306;40.960;14.836;2022-11-14T11:37:37;17.40;99.90
31725;DHT22;18306;40.960;14.836;2022-11-14T11:40:26;17.50;99.90
31725;DHT22;18306;40.960;14.836;2022-11-14T11:43:29;17.50;99.90
31725;DHT22;18306;40.960;14.836;2022-11-14T11:46:44;17.70;99.90
31725;DHT22;18306;40.960;14.836;2022-11-14T11:49:49;17.90;99.90
31725;DHT22;18306;40.960;14.836;2022-11-14T11:55:45;17.80;99.90
31725;DHT22;18306;40.960;14.836;2022-11-14T12:01:28;17.80;99.90
31725;DHT22;18306;40.960;14.836;2022-11-14T12:04:14;17.70;99.90
31725;DHT22;18306;40.960;14.836;2022-11-14T12:07:14;17.60;99.90
31725;DHT22;18306;40.960;14.836;2022-11-14T12:10:13;17.60;99.90
31725;DHT22;18306;40.960;14.836;2022-11-14T12:13:17;17.60;99.90
31725;DHT22;18306;40.960;14.836;2022-11-14T12:16:18;17.70;99.90
31725;DHT22;18306;40.960;14.836;2022-11-14T12:19:28;17.70;99.90
31725;DHT22;18306;40.960;14.836;2022-11-14T12:22:56;17.70;99.90
31725;DHT22;18306;40.960;14.836;2022-11-14T12:25:47;17.70;99.90
31725;DHT22;18306;40.960;14.836;2022-11-14T12:31:43;17.80;99.90
31725;DHT22;18306;40.960;14.836;2022-11-14T12:34:41;17.90;99.90
31725;DHT22;18306;40.960;14.836;2022-11-14T12:37:35;17.90;99.90
31725;DHT22;18306;40.960;14.836;2022-11-14T12:40:26;17.90;99.90
31725;DHT22;18306;40.960;14.836;2022-11-14T12:43:39;17.80;99.90
31725;DHT22;18306;40.960;14.836;2022-11-14T12:46:26;17.80;99.90
31725;DHT22;18306;40.960;14.836;2022-11-14T12:52:51;18.00;99.90
31725;DHT22;18306;40.960;14.836;2022-11-14T12:58:58;18.00;99.90
31725;DHT22;18306;40.960;14.836;2022-11-14T13:14:52;18.40;99.90
31725;DHT22;18306;40.960;14.836;2022-11-14T13:21:29;18.20;99.90
31725;DHT22;18306;40.960;14.836;2022-11-14T13:27:43;18.20;99.90
31725;DHT22;18306;40.960;14.836;2022-11-14T13:33:55;18.40;99.90
31725;DHT22;18306;40.960;14.836;2022-11-14T13:36:50;18.30;99.90
31725;DHT22;18306;40.960;14.836;2022-11-14T13:43:03;18.20;99.90
31725;DHT22;18306;40.960;14.836;2022-11-14T13:46:00;18.30;99.90
31725;DHT22;18306;40.960;14.836;2022-11-14T13:49:19;18.40;99.90
31725;DHT22;18306;40.960;14.836;2022-11-14T13:52:11;18.50;99.90
31725;DHT22;18306;40.960;14.836;2022-11-14T13:54:57;18.50;99.90
31725;DHT22;18306;40.960;14.836;2022-11-14T14:01:01;18.50;99.90
31725;DHT22;18306;40.960;14.836;2022-11-14T14:10:18;17.90;99.90
31725;DHT22;18306;40.960;14.836;2022-11-14T14:16:35;17.80;99.90
31725;DHT22;18306;40.960;14.836;2022-11-14T14:20:03;17.90;99.90
31725;DHT22;18306;40.960;14.836;2022-11-14T14:23:11;17.90;99.90
31725;DHT22;18306;40.960;14.836;2022-11-14T14:26:35;17.90;99.90
31725;DHT22;18306;40.960;14.836;2022-11-14T14:32:17;17.70;99.90
31725;DHT22;18306;40.960;14.836;2022-11-14T14:35:32;17.50;99.90
31725;DHT22;18306;40.960;14.836;2022-11-14T14:38:26;17.50;99.90
31725;DHT22;18306;40.960;14.836;2022-11-14T14:41:13;17.50;99.90
31725;DHT22;18306;40.960;14.836;2022-11-14T14:43:59;17.60;99.90
31725;DHT22;18306;40.960;14.836;2022-11-14T14:46:45;17.70;99.90
31725;DHT22;18306;40.960;14.836;2022-11-14T14:49:35;17.60;99.90
31725;DHT22;18306;40.960;14.836;2022-11-14T14:52:36;17.60;99.90
31725;DHT22;18306;40.960;14.836;2022-11-14T14:55:27;17.80;99.90
31725;DHT22;18306;40.960;14.836;2022-11-14T15:01:08;18.00;99.90
31725;DHT22;18306;40.960;14.836;2022-11-14T15:04:00;18.10;99.90
31725;DHT22;18306;40.960;14.836;2022-11-14T15:06:48;18.10;99.90
31725;DHT22;18306;40.960;14.836;2022-11-14T15:09:34;18.10;99.90
31725;DHT22;18306;40.960;14.836;2022-11-14T15:12:23;18.10;99.90
31725;DHT22;18306;40.960;14.836;2022-11-14T15:15:12;18.20;99.90
31725;DHT22;18306;40.960;14.836;2022-11-14T15:18:01;18.20;99.90
31725;DHT22;18306;40.960;14.836;2022-11-14T15:24:23;18.60;99.90
31725;DHT22;18306;40.960;14.836;2022-11-14T15:27:14;18.50;99.90
31725;DHT22;18306;40.960;14.836;2022-11-14T15:30:03;18.50;99.90
31725;DHT22;18306;40.960;14.836;2022-11-14T15:32:55;18.40;99.90
31725;DHT22;18306;40.960;14.836;2022-11-14T15:35:41;18.40;99.90
31725;DHT22;18306;40.960;14.836;2022-11-14T15:38:29;18.30;99.90
31725;DHT22;18306;40.960;14.836;2022-11-14T15:41:24;18.20;99.90
31725;DHT22;18306;40.960;14.836;2022-11-14T15:44:34;17.90;99.90
31725;DHT22;18306;40.960;14.836;2022-11-14T15:53:13;17.70;99.90
31725;DHT22;18306;40.960;14.836;2022-11-14T15:56:02;17.60;99.90
31725;DHT22;18306;40.960;14.836;2022-11-14T15:58:55;17.60;99.90
31725;DHT22;18306;40.960;14.836;2022-11-14T16:01:42;17.60;99.90
31725;DHT22;18306;40.960;14.836;2022-11-14T16:04:33;17.40;99.90
31725;DHT22;18306;40.960;14.836;2022-11-14T16:07:21;17.30;99.90
31725;DHT22;18306;40.960;14.836;2022-11-14T16:10:20;17.20;99.90
31725;DHT22;18306;40.960;14.836;2022-11-14T16:13:07;17.20;99.90
31725;DHT22;18306;40.960;14.836;2022-11-14T16:15:52;17.10;99.90
31725;DHT22;18306;40.960;14.836;2022-11-14T16:18:38;16.90;99.90
31725;DHT22;18306;40.960;14.836;2022-11-14T16:21:24;16.90;99.90
31725;DHT22;18306;40.960;14.836;2022-11-14T16:24:22;16.80;99.90
31725;DHT22;18306;40.960;14.836;2022-11-14T16:27:08;16.80;99.90
31725;DHT22;18306;40.960;14.836;2022-11-14T16:29:54;16.80;99.90
31725;DHT22;18306;40.960;14.836;2022-11-14T16:32:41;16.80;99.90
31725;DHT22;18306;40.960;14.836;2022-11-14T16:35:32;16.70;99.90
31725;DHT22;18306;40.960;14.836;2022-11-14T16:38:17;16.70;99.90
31725;DHT22;18306;40.960;14.836;2022-11-14T16:41:07;16.70;99.90
31725;DHT22;18306;40.960;14.836;2022-11-14T16:43:54;16.70;99.90
31725;DHT22;18306;40.960;14.836;2022-11-14T16:46:40;16.60;99.90
31725;DHT22;18306;40.960;14.836;2022-11-14T16:49:26;16.70;99.90
31725;DHT22;18306;40.960;14.836;2022-11-14T16:52:11;16.60;99.90
31725;DHT22;18306;40.960;14.836;2022-11-14T16:54:59;16.60;99.90
31725;DHT22;18306;40.960;14.836;2022-11-14T16:57:44;16.50;99.90
31725;DHT22;18306;40.960;14.836;2022-11-14T17:00:30;16.50;99.90
31725;DHT22;18306;40.960;14.836;2022-11-14T17:03:15;16.40;99.90
31725;DHT22;18306;40.960;14.836;2022-11-14T17:06:07;16.40;99.90
31725;DHT22;18306;40.960;14.836;2022-11-14T17:08:57;16.40;99.90
31725;DHT22;18306;40.960;14.836;2022-11-14T17:11:43;16.30;99.90
31725;DHT22;18306;40.960;14.836;2022-11-14T17:14:29;16.30;99.90
31725;DHT22;18306;40.960;14.836;2022-11-14T17:17:14;16.20;99.90
31725;DHT22;18306;40.960;14.836;2022-11-14T17:20:00;16.20;99.90
31725;DHT22;18306;40.960;14.836;2022-11-14T17:22:45;16.10;99.90
31725;DHT22;18306;40.960;14.836;2022-11-14T17:25:30;16.10;99.90
31725;DHT22;18306;40.960;14.836;2022-11-14T17:28:16;16.00;99.90
31725;DHT22;18306;40.960;14.836;2022-11-14T17:31:06;16.00;99.90
31725;DHT22;18306;40.960;14.836;2022-11-14T17:33:54;15.80;99.90
31725;DHT22;18306;40.960;14.836;2022-11-14T17:36:40;15.70;99.90
31725;DHT22;18306;40.960;14.836;2022-11-14T17:39:25;15.60;99.90
31725;DHT22;18306;40.960;14.836;2022-11-14T17:42:11;15.50;99.90
31725;DHT22;18306;40.960;14.836;2022-11-14T17:44:58;15.50;99.90
31725;DHT22;18306;40.960;14.836;2022-11-14T17:47:44;15.50;99.90
31725;DHT22;18306;40.960;14.836;2022-11-14T17:50:30;15.30;99.90
31725;DHT22;18306;40.960;14.836;2022-11-14T17:53:15;15.30;99.90
31725;DHT22;18306;40.960;14.836;2022-11-14T17:56:01;15.20;99.90
31725;DHT22;18306;40.960;14.836;2022-11-14T17:58:48;15.20;99.90
31725;DHT22;18306;40.960;14.836;2022-11-14T18:01:34;15.20;99.90
31725;DHT22;18306;40.960;14.836;2022-11-14T18:04:19;15.40;99.90
31725;DHT22;18306;40.960;14.836;2022-11-14T18:07:05;15.60;99.90
31725;DHT22;18306;40.960;14.836;2022-11-14T18:09:50;15.70;99.90
31725;DHT22;18306;40.960;14.836;2022-11-14T18:12:35;15.70;99.90
31725;DHT22;18306;40.960;14.836;2022-11-14T18:15:24;15.80;99.90
31725;DHT22;18306;40.960;14.836;2022-11-14T18:18:12;15.80;99.90
31725;DHT22;18306;40.960;14.836;2022-11-14T18:20:58;15.80;99.90
31725;DHT22;18306;40.960;14.836;2022-11-14T18:23:49;15.70;99.90
31725;DHT22;18306;40.960;14.836;2022-11-14T18:26:40;15.70;99.90
31725;DHT22;18306;40.960;14.836;2022-11-14T18:29:26;15.80;99.90
31725;DHT22;18306;40.960;14.836;2022-11-14T18:32:12;15.70;99.90
31725;DHT22;18306;40.960;14.836;2022-11-14T18:34:57;15.60;99.90
31725;DHT22;18306;40.960;14.836;2022-11-14T18:37:43;15.50;99.90
31725;DHT22;18306;40.960;14.836;2022-11-14T18:40:28;15.40;99.90
31725;DHT22;18306;40.960;14.836;2022-11-14T18:43:16;15.30;99.90
31725;DHT22;18306;40.960;14.836;2022-11-14T18:46:10;15.30;99.90
31725;DHT22;18306;40.960;14.836;2022-11-14T18:48:56;15.10;99.90
31725;DHT22;18306;40.960;14.836;2022-11-14T18:51:41;14.90;99.90
31725;DHT22;18306;40.960;14.836;2022-11-14T18:54:27;14.80;99.90
31725;DHT22;18306;40.960;14.836;2022-11-14T18:57:12;14.70;99.90
31725;DHT22;18306;40.960;14.836;2022-11-14T18:59:57;14.90;99.90
31725;DHT22;18306;40.960;14.836;2022-11-14T19:02:48;14.80;99.90
31725;DHT22;18306;40.960;14.836;2022-11-14T19:05:35;14.80;99.90
31725;DHT22;18306;40.960;14.836;2022-11-14T19:08:20;14.80;99.90